Stations météo

réclame
Mon MeteoGroup
Burgos/Villafria, Espagne (8075): Température de l'air & dewpoint: 12.12.2017 09:00:00 - 18.12.2017 09:00:00 (CET)Burgos/Villafria, Espagne (8075): Vitesse du vent: 12.12.2017 09:00:00 - 18.12.2017 09:00:00 (CET)Burgos/Villafria, Espagne (8075): Direction du vent: 12.12.2017 09:00:00 - 18.12.2017 09:00:00 (CET)Burgos/Villafria, Espagne (8075): visibility: 12.12.2017 09:00:00 - 18.12.2017 09:00:00 (CET)Burgos/Villafria, Espagne (8075): Quantités de précipitations: 12.12.2017 09:00:00 - 18.12.2017 09:00:00 (CET)
Date & Time tt [°C] td [°C] ff [km/h] ff [knt] dd vv [km] rr [mm]
18.12.2017 09:00:00 -3,7 -3,8 4 2 SE 10 0,0
18.12.2017 08:00:00 -4,0 -4,3 2 1 NNW 10 0,0
18.12.2017 07:00:00 -3,8 -4,1 4 2 SE 18 -
18.12.2017 06:00:00 -4,1 -4,4 5 3 NNE 10 0,0
18.12.2017 05:00:00 -3,4 -3,5 4 2 SE 10 0,0
18.12.2017 04:00:00 -3,8 -4,2 5 3 E 10 -
18.12.2017 03:00:00 -3,1 -3,4 4 2 SSE 10 0,0
18.12.2017 02:00:00 -2,7 -3,0 2 1 ESE 10 0,0
18.12.2017 01:00:00 -2,3 -2,7 4 2 SSE 10 -
18.12.2017 00:00:00 -1,1 -1,5 2 1 ENE 10 0,0
17.12.2017 23:00:00 -0,9 -1,3 2 1 ESE 10 0,0
17.12.2017 22:00:00 -0,1 -0,7 5 3 NE 10 -
17.12.2017 21:00:00 0,4 -0,7 8 4 E 10 0,0
17.12.2017 20:00:00 1,1 -0,5 5 3 N 10 0,0
17.12.2017 19:00:00 3,5 0,4 5 3 NNE 60 -
17.12.2017 18:00:00 3,8 0,1 11 6 N 10 0,0
17.12.2017 17:00:00 5,1 0,3 15 8 N 10 0,0
17.12.2017 16:00:00 6,2 0,1 8 4 N 60 -
17.12.2017 15:00:00 4,8 -0,2 9 5 N 10 0,0
17.12.2017 14:00:00 5,3 1,0 11 6 ENE 10 0,0
17.12.2017 13:00:00 3,9 1,6 5 3 WNW 10 -
17.12.2017 12:00:00 3,6 1,3 5 3 NE 10 0,0
17.12.2017 11:00:00 3,1 0,8 8 4 N 10 0,0
17.12.2017 10:00:00 2,3 0,8 5 3 ESE 40 -
17.12.2017 09:00:00 -0,5 -0,6 8 4 NE 10 0,0
17.12.2017 08:00:00 0,2 -0,1 8 4 NNE 10 0,0
17.12.2017 07:00:00 0,6 0,3 4 2 NNW 40 -
17.12.2017 06:00:00 0,5 -0,1 5 3 N 10 0,0
17.12.2017 05:00:00 0,6 0,2 8 4 NNW 10 0,0
17.12.2017 04:00:00 0,1 -0,3 8 4 WNW 10 -
17.12.2017 03:00:00 0,5 -0,1 8 4 WNW 10 0,0
17.12.2017 02:00:00 0,0 -0,6 5 3 NNW 10 0,0
17.12.2017 01:00:00 0,2 -0,4 2 1 - 10 -
17.12.2017 00:00:00 0,7 0,0 4 2 NE 10 0,0
16.12.2017 23:00:00 1,1 0,5 8 4 NNE 10 0,0
16.12.2017 22:00:00 1,3 0,1 15 8 NNW 10 -
16.12.2017 21:00:00 1,1 -0,2 13 7 NNW 10 0,0
16.12.2017 20:00:00 1,1 -0,5 13 7 NNW 10 0,0
16.12.2017 19:00:00 0,9 -1,0 11 6 N 50 -
16.12.2017 18:00:00 2,1 -0,7 21 11 NNW 10 0,0
16.12.2017 17:00:00 2,9 0,1 13 7 NNW 10 0,0
16.12.2017 16:00:00 3,4 0,6 18 10 N 60 -
16.12.2017 15:00:00 4,1 1,0 18 10 N 10 0,0
16.12.2017 14:00:00 4,0 1,0 15 8 NW 10 0,0
16.12.2017 13:00:00 4,7 1,0 18 10 NNW 60 -
16.12.2017 12:00:00 4,4 0,5 18 10 NW 10 0,0
16.12.2017 11:00:00 3,6 0,3 11 6 NNW 10 0,0
16.12.2017 10:00:00 2,3 -0,5 13 7 NNW 50 -
16.12.2017 09:00:00 0,4 -1,5 8 4 NW 10 0,0
16.12.2017 08:00:00 1,0 -1,1 15 8 NNW 10 0,0
16.12.2017 07:00:00 1,1 -0,8 13 7 NW 40 -
16.12.2017 06:00:00 0,0 -1,3 9 5 WNW 10 0,0
16.12.2017 05:00:00 0,4 -0,7 8 4 N 10 0,0
16.12.2017 04:00:00 1,9 -0,4 15 8 N 10 -
16.12.2017 03:00:00 1,7 -0,6 18 10 NNW 10 0,0
16.12.2017 02:00:00 1,9 -0,8 16 9 NNW 10 0,0
16.12.2017 01:00:00 1,9 0,3 18 10 NNW 10 -
16.12.2017 00:00:00 1,4 -0,7 9 5 N 10 0,0
15.12.2017 23:00:00 1,3 -0,6 9 5 N 10 0,0
15.12.2017 22:00:00 2,8 -0,3 18 10 NNW 10 -
15.12.2017 21:00:00 3,4 -0,6 11 6 N 10 0,0
15.12.2017 20:00:00 3,6 0,3 13 7 NNE 10 0,0
15.12.2017 19:00:00 4,2 -1,2 11 6 WNW 60 -
15.12.2017 18:00:00 4,6 -0,8 9 5 W 10 0,0
15.12.2017 17:00:00 6,6 0,1 5 3 WNW 10 0,0
15.12.2017 16:00:00 5,7 1,2 13 7 WSW 60 -
15.12.2017 15:00:00 6,3 0,6 9 5 WNW 10 0,0
15.12.2017 14:00:00 6,3 -0,2 8 4 WNW 10 0,0
15.12.2017 13:00:00 5,6 -0,5 16 9 NNW 60 -
15.12.2017 12:00:00 5,4 0,9 21 11 N 10 0,0
15.12.2017 11:00:00 4,9 2,3 9 5 NNE 10 0,0
15.12.2017 10:00:00 3,4 2,2 5 3 NNE 50 -
15.12.2017 09:00:00 2,9 2,5 9 5 N 10 0,0
15.12.2017 08:00:00 3,7 3,3 11 6 W 10 0,0
15.12.2017 07:00:00 3,2 2,0 21 11 WSW 50 -
15.12.2017 06:00:00 2,8 1,6 18 10 SW 10 0,0
15.12.2017 05:00:00 3,1 1,3 9 5 SW 10 0,0
15.12.2017 04:00:00 3,8 1,5 29 16 WSW 10 -
15.12.2017 03:00:00 3,6 1,1 15 8 SSW 10 0,0
15.12.2017 02:00:00 4,1 2,0 9 5 SW 10 0,0
15.12.2017 01:00:00 5,8 2,6 26 14 WSW 10 -
15.12.2017 00:00:00 7,6 4,9 24 13 WSW 10 0,0
14.12.2017 23:00:00 8,8 6,8 31 17 W 10 0,0
14.12.2017 22:00:00 8,6 7,4 24 13 WSW 10 -
14.12.2017 21:00:00 9,2 8,4 22 12 WSW 10 0,0
14.12.2017 20:00:00 9,6 9,1 29 16 SW 10 0,2
14.12.2017 19:00:00 10,0 9,4 26 14 SW 6 -
14.12.2017 18:00:00 10,3 9,5 22 12 WSW 8 0,0
14.12.2017 17:00:00 10,9 9,5 26 14 WSW 10 0,0
14.12.2017 16:00:00 11,5 8,9 29 16 W 15 -
14.12.2017 15:00:00 12,5 9,7 29 16 W 10 0,0
14.12.2017 14:00:00 11,1 9,7 24 13 W 10 0,0
14.12.2017 13:00:00 10,3 9,5 29 16 WSW 12 -
14.12.2017 12:00:00 10,0 9,4 16 9 SSW 10 0,0
14.12.2017 11:00:00 9,3 9,3 15 8 WSW 8 0,4
14.12.2017 10:00:00 8,9 8,9 18 10 WSW 4,0 -
14.12.2017 09:00:00 8,7 8,7 18 10 WSW 4,0 0,8
14.12.2017 08:00:00 8,3 8,3 16 9 WSW 6 0,0
14.12.2017 07:00:00 8,0 8,0 21 11 SW 1,5 -
14.12.2017 06:00:00 7,8 7,8 26 14 SW 1,0 0,0
14.12.2017 05:00:00 7,7 7,7 26 14 SW 1,5 0,0
14.12.2017 04:00:00 7,4 7,4 22 12 SW 1,8 -
14.12.2017 03:00:00 7,2 7,1 24 13 SSW 6 0,0
14.12.2017 02:00:00 7,1 6,8 22 12 SW 7 0,0
14.12.2017 01:00:00 6,7 6,6 18 10 SSW 8 -
14.12.2017 00:00:00 6,6 6,2 22 12 SSW 7 0,0
13.12.2017 23:00:00 6,7 6,0 21 11 SW 10 0,0
13.12.2017 22:00:00 6,4 5,7 18 10 SW 10 -
13.12.2017 21:00:00 6,2 5,3 18 10 SW 10 0,0
13.12.2017 20:00:00 6,2 5,2 22 12 SW 10 0,0
13.12.2017 19:00:00 6,2 5,2 18 10 SW 15 -
13.12.2017 18:00:00 5,7 5,1 15 8 SSW 10 0,0
13.12.2017 17:00:00 4,9 4,8 21 11 SSW 10 0,0
13.12.2017 16:00:00 4,4 4,3 21 11 SSW 6 -
13.12.2017 15:00:00 3,8 3,7 16 9 SSW 7 0,0
13.12.2017 14:00:00 3,7 3,3 24 13 SSW 10 0,0
13.12.2017 13:00:00 3,5 3,2 22 12 SSW 12 -
13.12.2017 12:00:00 2,6 2,3 22 12 SSW 4,0 0,0
13.12.2017 11:00:00 2,2 1,8 24 13 S 4,0 0,0
13.12.2017 10:00:00 2,0 1,3 22 12 S 15 -
13.12.2017 09:00:00 1,6 1,0 26 14 S 10 0,0
13.12.2017 08:00:00 1,5 0,6 21 11 SSW 10 0,0
13.12.2017 07:00:00 1,3 0,6 18 10 SSW 15 -
13.12.2017 06:00:00 0,6 -0,3 24 13 S 10 0,0
13.12.2017 05:00:00 0,5 -0,5 22 12 S 10 0,0
13.12.2017 04:00:00 0,4 -0,6 15 8 S 10 -
13.12.2017 03:00:00 0,7 -0,5 16 9 S 10 0,0
13.12.2017 02:00:00 1,0 -0,5 11 6 S 10 0,0
13.12.2017 01:00:00 1,2 -0,4 16 9 SSW 10 -
13.12.2017 00:00:00 1,3 -0,3 15 8 S 10 0,0
12.12.2017 23:00:00 1,4 -0,2 9 5 SSW 10 0,0
12.12.2017 22:00:00 1,7 -0,1 11 6 S 10 -
12.12.2017 21:00:00 1,8 -0,5 11 6 SW 10 0,0
12.12.2017 20:00:00 2,1 0,3 11 6 SSW 10 0,0
12.12.2017 19:00:00 2,5 0,4 8 4 SSW 20 -
12.12.2017 18:00:00 2,2 0,3 9 5 S 10 0,0
12.12.2017 17:00:00 4,0 0,7 13 7 SSW 10 0,0
12.12.2017 16:00:00 4,2 0,5 13 7 SW 30 -
12.12.2017 15:00:00 3,2 0,1 9 5 SSW 10 0,0
12.12.2017 14:00:00 2,1 0,0 13 7 SSW 10 0,0
12.12.2017 13:00:00 2,1 -0,2 15 8 SSW 25 -
12.12.2017 12:00:00 1,7 -0,2 15 8 SSW 10 0,0
12.12.2017 11:00:00 0,7 -0,8 11 6 SW 10 0,0
12.12.2017 10:00:00 0,3 -1,0 8 4 S 30 -
12.12.2017 09:00:00 -1,7 -2,1 5 3 SW 10 0,0

tt = Température de l'air
td = dewpoint
ff = Vitesse du vent
dd = Direction du vent
vv = visibility
rr = Quantités de précipitations

stations d'obs. à proximité